createdAt,value
2019-03-01T00:00:41.981Z,153.07
2019-03-01T00:03:13.385Z,141.50
2019-03-01T00:06:18.979Z,155.00
2019-03-01T00:09:55.096Z,158.33
2019-03-01T00:13:08.301Z,157.83
2019-03-01T00:16:35.427Z,152.50
2019-03-01T00:19:54.771Z,159.57
2019-03-01T00:23:11.563Z,167.83
2019-03-01T00:26:17.608Z,162.03
2019-03-01T00:29:58.744Z,147.60
2019-03-01T00:33:21.367Z,143.00
2019-03-01T00:36:39.196Z,152.93
2019-03-01T00:40:44.167Z,149.37
2019-03-01T00:44:16.648Z,145.47
2019-03-01T00:46:47.347Z,141.87
2019-03-01T00:49:17.996Z,141.83
2019-03-01T00:51:49.234Z,123.50
2019-03-01T00:54:20.390Z,139.77
2019-03-01T00:56:52.043Z,109.20
2019-03-01T00:59:22.473Z,110.17
2019-03-01T01:01:54.132Z,109.23
2019-03-01T01:04:25.385Z,107.07
2019-03-01T01:06:55.606Z,106.97
2019-03-01T01:09:26.842Z,101.57
2019-03-01T01:11:57.399Z,99.23
2019-03-01T01:14:27.538Z,95.53
2019-03-01T01:16:59.649Z,94.93
2019-03-01T01:19:31.137Z,89.70
2019-03-01T01:22:01.566Z,95.37
2019-03-01T01:24:33.329Z,94.37
2019-03-01T01:27:04.203Z,97.27
2019-03-01T01:29:36.650Z,91.63
2019-03-01T01:32:08.305Z,83.57
2019-03-01T01:34:39.679Z,82.63
2019-03-01T01:37:10.806Z,82.03
2019-03-01T01:39:42.561Z,92.07
2019-03-01T01:42:12.894Z,80.47
2019-03-01T01:44:44.653Z,78.93
2019-03-01T01:47:15.194Z,85.60
2019-03-01T01:49:45.950Z,80.47
2019-03-01T01:52:16.255Z,79.90
2019-03-01T01:54:49.449Z,71.83
2019-03-01T01:57:21.519Z,79.00
2019-03-01T01:59:53.498Z,87.70
2019-03-01T02:02:25.863Z,85.10
2019-03-01T02:04:57.107Z,89.23
2019-03-01T02:07:27.640Z,74.83
2019-03-01T02:09:59.131Z,74.73
2019-03-01T02:12:31.983Z,76.93
2019-03-01T02:15:04.154Z,85.23
2019-03-01T02:17:34.728Z,86.13
2019-03-01T02:20:06.546Z,78.33
2019-03-01T02:22:36.878Z,86.97
2019-03-01T02:25:09.365Z,83.90
2019-03-01T02:27:40.554Z,97.63
2019-03-01T02:30:19.796Z,85.53
2019-03-01T02:32:56.676Z,94.40
2019-03-01T02:35:28.698Z,89.43
2019-03-01T02:38:01.059Z,86.70
2019-03-01T02:40:35.818Z,88.57
2019-03-01T02:43:06.521Z,106.57
2019-03-01T02:45:38.081Z,97.77
2019-03-01T02:48:08.629Z,91.30
2019-03-01T02:50:38.851Z,96.07
2019-03-01T02:53:10.106Z,92.73
2019-03-01T02:55:40.728Z,91.80
2019-03-01T02:58:12.075Z,94.70
2019-03-01T03:00:44.143Z,92.90
2019-03-01T03:03:16.562Z,97.50
2019-03-01T03:06:06.596Z,99.10
2019-03-01T03:08:38.887Z,109.07
2019-03-01T03:11:10.522Z,102.90
2019-03-01T03:13:40.959Z,104.73
2019-03-01T03:16:12.648Z,104.90
2019-03-01T03:18:43.743Z,88.70
2019-03-01T03:21:13.991Z,94.37
2019-03-01T03:23:44.389Z,88.23
2019-03-01T03:26:14.960Z,83.07
2019-03-01T03:28:47.254Z,98.63
2019-03-01T03:31:17.660Z,93.03
2019-03-01T03:33:48.245Z,92.30
2019-03-01T03:36:19.031Z,84.83
2019-03-01T03:38:49.186Z,82.37
2019-03-01T03:41:20.041Z,79.50
2019-03-01T03:43:50.613Z,84.13
2019-03-01T03:46:20.865Z,88.50
2019-03-01T03:48:53.129Z,84.67
2019-03-01T03:51:23.528Z,81.53
2019-03-01T03:53:54.064Z,87.23
2019-03-01T03:56:24.792Z,91.60
2019-03-01T03:58:56.919Z,94.27
2019-03-01T04:01:28.559Z,94.07
2019-03-01T04:04:00.831Z,85.67
2019-03-01T04:06:32.388Z,85.83
2019-03-01T04:09:04.385Z,90.73
2019-03-01T04:11:36.036Z,81.60
2019-03-01T04:14:06.429Z,100.10
2019-03-01T04:16:37.053Z,93.33
2019-03-01T04:19:07.817Z,90.30
2019-03-01T04:21:37.942Z,91.67
2019-03-01T04:24:08.314Z,93.20
2019-03-01T04:26:38.724Z,80.67
2019-03-01T04:29:10.018Z,92.87
2019-03-01T04:31:41.471Z,106.80
2019-03-01T04:34:11.881Z,99.53
2019-03-01T04:36:44.453Z,92.07
2019-03-01T04:39:14.885Z,96.47
2019-03-01T04:41:45.533Z,92.67
2019-03-01T04:44:15.788Z,88.10
2019-03-01T04:46:46.485Z,92.10
2019-03-01T04:49:18.006Z,89.50
2019-03-01T04:51:49.557Z,105.10
2019-03-01T04:54:19.680Z,93.70
2019-03-01T04:56:51.063Z,91.90
2019-03-01T04:59:21.419Z,96.97
2019-03-01T05:01:53.159Z,96.80
2019-03-01T05:04:25.216Z,94.40
2019-03-01T05:06:58.484Z,90.57
2019-03-01T05:09:29.639Z,89.50
2019-03-01T05:12:01.741Z,92.20
2019-03-01T05:14:31.840Z,93.50
2019-03-01T05:17:02.111Z,98.57
2019-03-01T05:19:32.415Z,108.87
2019-03-01T05:22:03.690Z,88.93
2019-03-01T05:24:33.858Z,104.80
2019-03-01T05:27:06.094Z,95.77
2019-03-01T05:29:36.457Z,88.57
2019-03-01T05:32:07.947Z,87.77
2019-03-01T05:34:38.319Z,90.13
2019-03-01T05:37:08.772Z,85.50
2019-03-01T05:39:41.384Z,85.73
2019-03-01T05:42:11.884Z,97.17
2019-03-01T05:44:43.543Z,83.63
2019-03-01T05:47:15.099Z,85.70
2019-03-01T05:49:47.474Z,88.40
2019-03-01T05:52:17.550Z,86.27
2019-03-01T05:54:47.690Z,84.87
2019-03-01T05:57:17.796Z,95.90
2019-03-01T05:59:48.224Z,94.23
2019-03-01T06:02:57.595Z,85.83
2019-03-01T06:05:49.211Z,84.87
2019-03-01T06:09:13.671Z,86.93
2019-03-01T06:12:41.742Z,84.30
2019-03-01T06:16:11.944Z,91.03
2019-03-01T06:19:50.443Z,82.00
2019-03-01T06:23:10.560Z,80.73
2019-03-01T06:26:28.471Z,91.00
2019-03-01T06:30:12.061Z,85.43
2019-03-01T06:33:28.757Z,84.37
2019-03-01T06:36:19.602Z,89.13
2019-03-01T06:39:51.799Z,90.40
2019-03-01T06:43:32.647Z,99.63
2019-03-01T06:47:05.289Z,81.27
2019-03-01T06:49:53.823Z,90.27
2019-03-01T06:52:25.189Z,89.20
2019-03-01T06:54:55.497Z,89.93
2019-03-01T06:57:25.883Z,98.30
2019-03-01T06:59:57.901Z,81.90
2019-03-01T07:02:35.701Z,88.03
2019-03-01T07:05:07.944Z,90.70
2019-03-01T07:07:38.198Z,112.70
2019-03-01T07:10:09.872Z,88.77
2019-03-01T07:12:40.291Z,91.00
2019-03-01T07:15:10.826Z,87.43
2019-03-01T07:17:41.355Z,91.97
2019-03-01T07:20:12.696Z,94.20
2019-03-01T07:22:43.242Z,88.60
2019-03-01T07:25:13.910Z,83.80
2019-03-01T07:27:45.533Z,96.50
2019-03-01T07:30:15.954Z,82.23
2019-03-01T07:32:48.032Z,85.90
2019-03-01T07:35:19.350Z,80.97
2019-03-01T07:37:49.717Z,95.03
2019-03-01T07:40:20.152Z,88.13
2019-03-01T07:42:50.631Z,92.63
2019-03-01T07:45:22.155Z,86.53
2019-03-01T07:47:53.949Z,85.53
2019-03-01T07:50:26.061Z,90.57
2019-03-01T07:52:56.616Z,95.80
2019-03-01T07:55:29.840Z,80.43
2019-03-01T07:58:01.988Z,85.37
2019-03-01T08:00:32.349Z,77.90
2019-03-01T08:03:05.588Z,74.30
2019-03-01T08:05:39.403Z,83.97
2019-03-01T08:08:09.414Z,83.10
2019-03-01T08:10:41.830Z,83.77
2019-03-01T08:13:14.829Z,73.40
2019-03-01T08:15:44.908Z,99.87
2019-03-01T08:18:16.201Z,91.27
2019-03-01T08:20:48.262Z,73.40
2019-03-01T08:23:18.479Z,74.77
2019-03-01T08:25:48.826Z,70.30
2019-03-01T08:28:21.980Z,72.33
2019-03-01T08:30:52.015Z,89.87
2019-03-01T08:33:22.317Z,86.40
2019-03-01T08:35:54.475Z,92.30
2019-03-01T08:38:28.792Z,79.03
2019-03-01T08:40:57.716Z,81.40
2019-03-01T08:43:29.773Z,99.30
2019-03-01T08:46:01.745Z,84.77
2019-03-01T08:48:33.612Z,76.23
2019-03-01T08:51:06.795Z,81.97
2019-03-01T08:53:37.124Z,80.73
2019-03-01T08:56:10.948Z,85.50
2019-03-01T08:58:41.461Z,90.47
2019-03-01T09:01:13.064Z,84.97
2019-03-01T09:03:52.992Z,98.27
2019-03-01T09:06:23.638Z,85.43
2019-03-01T09:08:55.569Z,88.23
2019-03-01T09:11:26.016Z,93.50
2019-03-01T09:13:58.061Z,90.73
2019-03-01T09:16:29.424Z,89.23
2019-03-01T09:19:00.880Z,95.13
2019-03-01T09:21:31.215Z,94.67
2019-03-01T09:24:02.658Z,95.87
2019-03-01T09:26:33.198Z,120.20
2019-03-01T09:29:04.137Z,100.50
2019-03-01T09:31:34.440Z,104.30
2019-03-01T09:34:06.363Z,118.07
2019-03-01T09:36:40.628Z,116.33
2019-03-01T09:39:14.424Z,106.70
2019-03-01T09:41:44.800Z,120.20
2019-03-01T09:44:15.697Z,104.63
2019-03-01T09:46:47.183Z,117.23
2019-03-01T09:49:21.470Z,115.57
2019-03-01T09:51:51.934Z,126.97
2019-03-01T09:54:22.318Z,116.83
2019-03-01T09:56:54.837Z,131.17
2019-03-01T09:59:26.622Z,141.97
2019-03-01T10:01:58.089Z,130.67
2019-03-01T10:04:28.613Z,128.63
2019-03-01T10:06:59.201Z,122.53
2019-03-01T10:09:30.723Z,133.60
2019-03-01T10:12:02.442Z,130.17
2019-03-01T10:14:32.867Z,130.47
2019-03-01T10:17:03.503Z,123.57
2019-03-01T10:19:34.818Z,120.77
2019-03-01T10:22:08.021Z,124.63
2019-03-01T10:24:39.809Z,131.67
2019-03-01T10:27:11.878Z,130.83
2019-03-01T10:29:42.313Z,124.40
2019-03-01T10:32:13.608Z,136.20
2019-03-01T10:34:45.909Z,119.40
2019-03-01T10:37:17.435Z,107.33
2019-03-01T10:39:55.311Z,111.30
2019-03-01T10:42:20.175Z,112.80
2019-03-01T10:44:50.542Z,114.70
2019-03-01T10:47:23.758Z,124.33
2019-03-01T10:49:55.344Z,135.17
2019-03-01T10:52:26.154Z,101.93
2019-03-01T10:54:56.538Z,113.17
2019-03-01T10:57:26.911Z,114.83
2019-03-01T10:59:57.252Z,109.57
2019-03-01T11:02:28.446Z,102.77
2019-03-01T11:04:59.673Z,101.70
2019-03-01T11:07:32.789Z,109.30
2019-03-01T11:10:05.179Z,106.57
2019-03-01T11:12:36.856Z,96.70
2019-03-01T11:15:08.369Z,93.73
2019-03-01T11:17:39.218Z,101.13
2019-03-01T11:20:11.561Z,97.03
2019-03-01T11:22:42.058Z,95.93
2019-03-01T11:25:13.837Z,89.40
2019-03-01T11:27:46.878Z,93.00
2019-03-01T11:30:23.306Z,86.30
2019-03-01T11:32:54.911Z,104.53
2019-03-01T11:35:25.432Z,90.73
2019-03-01T11:37:56.087Z,86.43
2019-03-01T11:40:30.776Z,85.53
2019-03-01T11:43:01.626Z,84.83
2019-03-01T11:45:32.583Z,84.17
2019-03-01T11:48:03.992Z,68.50
2019-03-01T11:50:35.390Z,79.87
2019-03-01T11:53:06.030Z,76.60
2019-03-01T11:55:38.551Z,65.23
2019-03-01T11:58:09.795Z,61.80
2019-03-01T12:00:40.748Z,64.57
2019-03-01T12:03:15.329Z,59.17
2019-03-01T12:05:46.577Z,54.70
2019-03-01T12:08:16.903Z,54.73
2019-03-01T12:10:47.437Z,53.13
2019-03-01T12:13:17.972Z,51.97
2019-03-01T12:15:50.343Z,54.77
2019-03-01T12:18:20.755Z,57.50
2019-03-01T12:20:54.169Z,51.53
2019-03-01T12:23:24.703Z,51.40
2019-03-01T12:25:56.092Z,44.60
2019-03-01T12:28:27.306Z,45.17
2019-03-01T12:30:57.564Z,50.00
2019-03-01T12:33:28.069Z,46.33
2019-03-01T12:35:58.394Z,40.17
2019-03-01T12:38:31.525Z,46.47
2019-03-01T12:41:01.834Z,46.27
2019-03-01T12:43:33.976Z,45.43
2019-03-01T12:46:04.444Z,43.30
2019-03-01T12:48:36.262Z,48.47
2019-03-01T12:51:06.482Z,51.20
2019-03-01T12:53:36.884Z,51.17
2019-03-01T12:56:07.217Z,52.73
2019-03-01T12:58:37.825Z,55.30
2019-03-01T13:01:09.816Z,49.33
2019-03-01T13:03:43.942Z,44.20
2019-03-01T13:06:15.471Z,46.83
2019-03-01T13:08:47.702Z,49.07
2019-03-01T13:11:20.621Z,49.70
2019-03-01T13:13:51.051Z,51.30
2019-03-01T13:16:23.413Z,54.93
2019-03-01T13:18:54.053Z,43.80
2019-03-01T13:21:25.843Z,48.97
2019-03-01T13:23:56.288Z,46.53
2019-03-01T13:26:26.786Z,45.57
2019-03-01T13:28:58.927Z,47.17
2019-03-01T13:31:29.030Z,38.93
2019-03-01T13:33:59.547Z,33.27
2019-03-01T13:36:29.793Z,30.60
2019-03-01T13:39:00.365Z,29.00
2019-03-01T13:41:33.943Z,29.43
2019-03-01T13:44:04.192Z,20.53
2019-03-01T13:46:35.555Z,25.20
2019-03-01T13:49:06.828Z,18.90
2019-03-01T13:51:39.052Z,21.77
2019-03-01T13:54:09.854Z,17.27
2019-03-01T13:56:40.319Z,17.53
2019-03-01T13:59:10.753Z,18.03
2019-03-01T14:01:41.538Z,19.47
2019-03-01T14:04:12.021Z,20.37
2019-03-01T14:06:42.385Z,16.17
2019-03-01T14:09:14.219Z,17.50
2019-03-01T14:11:45.192Z,17.57
2019-03-01T14:14:16.394Z,18.20
2019-03-01T14:16:47.775Z,20.60
2019-03-01T14:19:19.842Z,24.23
2019-03-01T14:21:50.581Z,17.27
2019-03-01T14:24:22.133Z,15.53
2019-03-01T14:26:53.920Z,13.97
2019-03-01T14:29:26.187Z,11.27
2019-03-01T14:31:57.403Z,14.23
2019-03-01T14:34:27.935Z,13.83
2019-03-01T14:36:58.366Z,18.33
2019-03-01T14:39:29.821Z,13.17
2019-03-01T14:42:02.509Z,12.87
2019-03-01T14:44:33.864Z,6.27
2019-03-01T14:47:05.309Z,14.03
2019-03-01T14:49:35.885Z,14.03
2019-03-01T14:52:06.282Z,10.10
2019-03-01T14:54:37.765Z,6.77
2019-03-01T14:57:26.475Z,7.97
2019-03-01T15:00:37.842Z,22.50
2019-03-01T15:03:37.134Z,9.77
2019-03-01T15:06:10.836Z,11.10
2019-03-01T15:08:44.270Z,9.83
2019-03-01T15:11:19.705Z,9.50
2019-03-01T15:13:52.633Z,13.17
2019-03-01T15:16:23.649Z,11.33
2019-03-01T15:18:55.894Z,12.93
2019-03-01T15:21:26.443Z,6.27
2019-03-01T15:24:00.440Z,10.33
2019-03-01T15:26:29.220Z,8.90
2019-03-01T15:29:00.998Z,12.20
2019-03-01T15:31:31.824Z,11.50
2019-03-01T15:34:02.268Z,7.80
2019-03-01T15:36:32.897Z,13.53
2019-03-01T15:39:04.882Z,9.43
2019-03-01T15:41:39.221Z,9.10
2019-03-01T15:44:09.106Z,11.60
2019-03-01T15:46:41.564Z,5.70
2019-03-01T15:49:15.234Z,17.23
2019-03-01T15:51:46.744Z,9.47
2019-03-01T15:54:16.995Z,13.60
2019-03-01T15:56:47.682Z,12.53
2019-03-01T15:59:18.182Z,9.20
2019-03-01T16:01:48.666Z,8.50
2019-03-01T16:04:22.726Z,16.13
2019-03-01T16:06:56.214Z,11.27
2019-03-01T16:09:26.412Z,11.50
2019-03-01T16:11:57.513Z,11.53
2019-03-01T16:14:29.295Z,13.30
2019-03-01T16:17:01.684Z,18.60
2019-03-01T16:19:32.843Z,14.47
2019-03-01T16:22:03.403Z,12.10
2019-03-01T16:24:33.827Z,15.90
2019-03-01T16:27:04.531Z,25.97
2019-03-01T16:29:38.778Z,10.90
2019-03-01T16:32:09.674Z,29.57
2019-03-01T16:34:43.308Z,26.90
2019-03-01T16:37:16.813Z,25.60
2019-03-01T16:39:49.132Z,20.00
2019-03-01T16:42:20.124Z,20.20
2019-03-01T16:44:50.853Z,13.77
2019-03-01T16:47:23.325Z,15.80
2019-03-01T16:49:54.006Z,18.27
2019-03-01T16:52:26.423Z,17.43
2019-03-01T16:54:58.155Z,21.77
2019-03-01T16:57:28.743Z,28.33
2019-03-01T17:00:01.322Z,21.37
2019-03-01T17:02:32.894Z,27.93
2019-03-01T17:05:05.325Z,25.70
2019-03-01T17:07:36.173Z,23.57
2019-03-01T17:10:08.968Z,23.60
2019-03-01T17:12:40.890Z,34.00
2019-03-01T17:15:15.687Z,28.53
2019-03-01T17:17:46.213Z,20.13
2019-03-01T17:20:18.784Z,20.90
2019-03-01T17:22:49.173Z,15.80
2019-03-01T17:25:19.579Z,21.00
2019-03-01T17:27:49.720Z,20.90
2019-03-01T17:30:20.907Z,16.53
2019-03-01T17:32:53.015Z,11.57
2019-03-01T17:35:23.357Z,18.47
2019-03-01T17:37:53.726Z,23.70
2019-03-01T17:40:25.791Z,24.57
2019-03-01T17:42:56.585Z,16.93
2019-03-01T17:45:28.789Z,19.20
2019-03-01T17:47:59.444Z,23.70
2019-03-01T17:50:30.189Z,21.80
2019-03-01T17:53:01.173Z,13.20
2019-03-01T17:55:34.453Z,16.43
2019-03-01T17:58:05.514Z,18.90
2019-03-01T18:00:37.414Z,22.10
2019-03-01T18:03:09.525Z,18.00
2019-03-01T18:05:40.654Z,19.47
2019-03-01T18:08:13.954Z,18.53
2019-03-01T18:10:48.932Z,16.23
2019-03-01T18:13:21.855Z,26.53
2019-03-01T18:15:52.301Z,23.47
2019-03-01T18:18:23.635Z,24.13
2019-03-01T18:20:55.206Z,28.07
2019-03-01T18:23:26.230Z,19.97
2019-03-01T18:25:59.682Z,21.63
2019-03-01T18:28:30.331Z,22.30
2019-03-01T18:31:00.734Z,23.50
2019-03-01T18:33:30.845Z,22.93
2019-03-01T18:36:03.261Z,23.43
2019-03-01T18:38:33.592Z,28.87
2019-03-01T18:41:06.250Z,28.47
2019-03-01T18:43:39.142Z,21.27
2019-03-01T18:46:10.163Z,28.13
2019-03-01T18:48:44.060Z,19.50
2019-03-01T18:51:15.343Z,22.43
2019-03-01T18:53:46.091Z,34.17
2019-03-01T18:56:17.082Z,28.10
2019-03-01T18:58:48.983Z,26.63
2019-03-01T19:01:21.408Z,29.87
2019-03-01T19:03:53.669Z,20.47
2019-03-01T19:06:24.733Z,23.20
2019-03-01T19:08:55.859Z,19.53
2019-03-01T19:11:28.197Z,19.53
2019-03-01T19:14:01.864Z,22.23
2019-03-01T19:16:33.412Z,17.53
2019-03-01T19:19:04.189Z,19.17
2019-03-01T19:21:35.053Z,21.43
2019-03-01T19:24:08.161Z,16.20
2019-03-01T19:26:37.992Z,18.10
2019-03-01T19:29:11.797Z,18.43
2019-03-01T19:31:44.960Z,30.10
2019-03-01T19:34:18.044Z,21.63
2019-03-01T19:36:49.388Z,24.17
2019-03-01T19:39:21.618Z,23.23
2019-03-01T19:41:58.031Z,28.50
2019-03-01T19:44:29.069Z,19.83
2019-03-01T19:47:00.769Z,22.57
2019-03-01T19:49:32.671Z,17.90
2019-03-01T19:52:09.429Z,18.43
2019-03-01T19:54:38.375Z,23.60
2019-03-01T19:57:11.056Z,17.90
2019-03-01T19:59:41.761Z,19.73
2019-03-01T20:02:13.196Z,19.00
2019-03-01T20:04:45.746Z,20.60
2019-03-01T20:07:19.830Z,13.07
2019-03-01T20:09:48.595Z,22.50
2019-03-01T20:12:19.413Z,98.67
2019-03-01T20:14:51.643Z,139.17
2019-03-01T20:17:22.385Z,25.03
2019-03-01T20:19:53.528Z,17.50
2019-03-01T20:22:26.133Z,13.93
2019-03-01T20:24:56.844Z,15.67
2019-03-01T20:27:27.378Z,14.30
2019-03-01T20:29:58.346Z,32.77
2019-03-01T20:32:28.938Z,16.77
2019-03-01T20:34:59.199Z,13.53
2019-03-01T20:37:35.954Z,17.53
2019-03-01T20:40:09.817Z,21.73
2019-03-01T20:42:41.690Z,15.53
2019-03-01T20:45:18.494Z,14.40
2019-03-01T20:47:50.545Z,20.67
2019-03-01T20:50:21.549Z,19.43
2019-03-01T20:52:54.018Z,13.73
2019-03-01T20:55:26.417Z,13.90
2019-03-01T20:57:59.741Z,22.47
2019-03-01T21:00:33.248Z,19.47
2019-03-01T21:03:04.003Z,20.30
2019-03-01T21:05:34.654Z,20.20
2019-03-01T21:08:05.072Z,13.30
2019-03-01T21:10:38.512Z,26.87
2019-03-01T21:13:12.573Z,16.20
2019-03-01T21:15:42.846Z,19.07
2019-03-01T21:18:12.973Z,17.03
2019-03-01T21:20:43.206Z,15.80
2019-03-01T21:23:15.115Z,16.47
2019-03-01T21:25:45.823Z,21.07
2019-03-01T21:28:17.133Z,18.43
2019-03-01T21:30:48.568Z,20.23
2019-03-01T21:33:19.266Z,17.77
2019-03-01T21:35:51.211Z,18.30
2019-03-01T21:38:22.849Z,15.23
2019-03-01T21:40:54.911Z,16.40
2019-03-01T21:43:25.421Z,21.43
2019-03-01T21:45:58.851Z,15.77
2019-03-01T21:48:29.892Z,27.83
2019-03-01T21:51:00.295Z,18.87
2019-03-01T21:53:32.073Z,16.33
2019-03-01T21:56:04.584Z,18.77
2019-03-01T21:58:38.650Z,24.07
2019-03-01T22:01:09.576Z,12.60
2019-03-01T22:03:40.750Z,9.53
2019-03-01T22:06:11.182Z,19.43
2019-03-01T22:08:44.855Z,19.80
2019-03-01T22:11:14.974Z,15.50
2019-03-01T22:13:47.303Z,16.27
2019-03-01T22:16:17.719Z,18.43
2019-03-01T22:18:48.321Z,15.27
2019-03-01T22:21:22.568Z,15.03
2019-03-01T22:23:52.627Z,9.63
2019-03-01T22:26:23.551Z,19.73
2019-03-01T22:28:54.423Z,9.80
2019-03-01T22:31:25.825Z,20.03
2019-03-01T22:33:56.756Z,16.63
2019-03-01T22:36:28.424Z,15.63
2019-03-01T22:38:59.854Z,22.43
2019-03-01T22:41:32.157Z,12.03
2019-03-01T22:44:04.137Z,13.87
2019-03-01T22:46:37.618Z,12.93
2019-03-01T22:49:07.843Z,19.87
2019-03-01T22:51:38.094Z,10.57
2019-03-01T22:54:09.040Z,18.93
2019-03-01T22:56:40.618Z,19.17
2019-03-01T22:59:11.965Z,16.10
2019-03-01T23:01:45.100Z,17.00
2019-03-01T23:04:15.741Z,14.13
2019-03-01T23:06:47.646Z,10.83
2019-03-01T23:09:20.202Z,13.30
2019-03-01T23:11:50.538Z,12.93
2019-03-01T23:14:21.369Z,15.33
2019-03-01T23:16:55.596Z,16.40
2019-03-01T23:19:26.047Z,15.53
2019-03-01T23:21:58.209Z,14.70
2019-03-01T23:24:31.664Z,20.20
2019-03-01T23:27:02.013Z,18.97
2019-03-01T23:29:32.682Z,16.10
2019-03-01T23:32:02.977Z,11.97
2019-03-01T23:34:35.247Z,14.20
2019-03-01T23:37:07.360Z,11.93
2019-03-01T23:39:37.787Z,23.23
2019-03-01T23:42:08.023Z,12.63
2019-03-01T23:44:38.691Z,20.30
2019-03-01T23:47:12.236Z,24.13
2019-03-01T23:49:44.832Z,12.83
2019-03-01T23:52:16.253Z,13.50
2019-03-01T23:54:48.404Z,14.03
2019-03-01T23:57:20.098Z,15.47
2019-03-01T23:59:51.328Z,13.77
